Time;durP1;ratioP1;P1;durP2;ratioP2;P2;SDS_P1;SDS_P2;PMS_P1;PMS_P2;Temp;Humidity;BMP_temperature;BMP_pressure;BME280_temperature;BME280_humidity;BME280_pressure;Samples;Min_cycle;Max_cycle;Signal;HPM_P1;HPM_P2
2023/08/18 00:01:19;;;;;;;12.95;7.50;;;;;;;22.45;94.03;100330.38;5042643;28;20031;-71
2023/08/18 00:03:45;;;;;;;9.88;6.90;;;;;;;21.98;94.73;100285.41;5047705;28;20032;-72
2023/08/18 00:06:10;;;;;;;14.10;7.10;;;;;;;22.18;94.36;100302.69;5045869;28;20036;-68
2023/08/18 00:08:36;;;;;;;12.88;6.93;;;;;;;22.17;94.52;100313.19;5043645;28;20463;-71
2023/08/18 00:11:01;;;;;;;16.38;7.38;;;;;;;21.68;94.67;100246.38;5047091;28;20021;-69
2023/08/18 00:13:27;;;;;;;11.43;7.50;;;;;;;22.12;94.67;100322.03;5045188;28;20582;-69
2023/08/18 00:15:52;;;;;;;13.93;7.72;;;;;;;22.01;94.79;100325.66;5044537;28;20025;-70
2023/08/18 00:18:18;;;;;;;13.07;7.50;;;;;;;21.25;94.82;100219.69;5044900;28;20021;-68
2023/08/18 00:20:43;;;;;;;11.00;7.65;;;;;;;21.92;94.81;100331.91;5061979;28;20477;-67
2023/08/18 00:23:09;;;;;;;15.57;7.93;;;;;;;21.94;94.12;100328.41;5043516;28;20397;-66
2023/08/18 00:25:35;;;;;;;13.23;7.43;;;;;;;22.01;93.75;100323.94;5046167;28;20104;-72
2023/08/18 00:28:00;;;;;;;11.45;7.32;;;;;;;21.98;93.17;100318.69;5057010;28;20132;-67
2023/08/18 00:30:25;;;;;;;9.45;6.68;;;;;;;21.90;93.01;100315.31;5044249;28;20574;-68
2023/08/18 00:32:51;;;;;;;12.27;8.02;;;;;;;21.64;93.22;100266.56;5044668;28;20029;-70
2023/08/18 00:35:17;;;;;;;12.82;7.82;;;;;;;22.05;92.97;100323.00;5061474;28;20031;-71
2023/08/18 00:37:44;;;;;;;11.38;7.28;;;;;;;22.10;92.49;100325.56;5046816;28;20096;-66
2023/08/18 00:40:10;;;;;;;11.52;7.20;;;;;;;21.87;92.02;100268.03;5045141;28;20424;-68
2023/08/18 00:42:35;;;;;;;10.85;7.32;;;;;;;22.10;90.91;100284.34;5046275;28;20043;-68
2023/08/18 00:45:01;;;;;;;15.30;7.30;;;;;;;22.22;91.42;100319.25;5044632;28;20025;-68
2023/08/18 00:47:27;;;;;;;11.65;7.47;;;;;;;22.32;91.16;100320.91;5043460;28;20040;-67
2023/08/18 00:49:54;;;;;;;13.98;7.40;;;;;;;22.37;90.64;100320.81;5047842;28;20112;-69
2023/08/18 00:52:20;;;;;;;8.32;7.38;;;;;;;22.32;90.28;100306.84;5043826;28;20040;-67
2023/08/18 00:54:48;;;;;;;11.80;6.97;;;;;;;22.32;89.57;100298.97;5060781;28;20025;-69
2023/08/18 00:57:14;;;;;;;9.25;7.43;;;;;;;22.44;89.76;100299.72;5043265;28;20064;-67
2023/08/18 00:59:39;;;;;;;14.68;7.55;;;;;;;22.58;88.46;100311.75;5044190;28;20517;-70
2023/08/18 01:02:05;;;;;;;10.23;7.38;;;;;;;22.59;88.58;100324.91;5042511;28;20040;-71
2023/08/18 01:04:33;;;;;;;9.32;7.30;;;;;;;22.66;88.42;100322.19;5040961;28;20122;-66
2023/08/18 01:06:59;;;;;;;8.23;7.07;;;;;;;22.63;88.30;100320.47;5056135;28;20036;-67
2023/08/18 01:09:25;;;;;;;11.95;7.47;;;;;;;22.54;88.51;100320.59;5042075;28;20055;-69
2023/08/18 01:12:04;;;;;;;11.25;7.03;;;;;;;22.19;88.75;100279.88;5041273;28;20159;-66
2023/08/18 01:14:41;;;;;;;10.18;7.20;;;;;;;22.34;89.08;100318.22;5039944;28;20093;-67
2023/08/18 01:17:15;;;;;;;10.05;7.32;;;;;;;22.11;89.61;100306.28;5041070;28;20033;-69
2023/08/18 01:19:41;;;;;;;11.45;6.95;;;;;;;22.21;89.83;100321.03;5044890;28;20033;-67
2023/08/18 01:22:11;;;;;;;11.05;7.70;;;;;;;22.13;89.65;100291.34;5039275;28;20044;-69
2023/08/18 01:24:39;;;;;;;11.32;7.60;;;;;;;21.59;89.78;100224.56;5042083;28;20482;-69
2023/08/18 01:27:05;;;;;;;10.95;7.22;;;;;;;22.19;89.70;100304.41;5038685;28;20037;-68
2023/08/18 01:29:31;;;;;;;9.75;7.10;;;;;;;22.14;90.24;100317.63;5028055;28;20028;-69
2023/08/18 01:32:00;;;;;;;10.10;7.47;;;;;;;21.86;90.00;100269.78;5041671;28;20044;-69
2023/08/18 01:34:29;;;;;;;13.43;7.57;;;;;;;21.85;90.46;100272.47;5043530;28;20022;-70
2023/08/18 01:36:57;;;;;;;10.95;7.88;;;;;;;22.03;90.16;100318.66;5043040;28;20095;-67
2023/08/18 01:39:24;;;;;;;13.13;7.90;;;;;;;21.92;90.34;100316.13;5045074;28;20049;-68
2023/08/18 01:41:51;;;;;;;10.10;7.65;;;;;;;21.56;89.82;100261.41;5041888;28;20082;-69
2023/08/18 01:44:18;;;;;;;11.77;7.57;;;;;;;21.61;89.89;100309.50;5041798;28;20377;-68
2023/08/18 01:46:45;;;;;;;8.75;7.38;;;;;;;21.42;90.69;100310.53;5044098;28;20029;-68
2023/08/18 01:49:11;;;;;;;9.27;7.60;;;;;;;20.89;90.80;100262.94;5060536;28;20052;-69
2023/08/18 01:51:36;;;;;;;13.93;7.70;;;;;;;21.20;90.53;100323.91;5044082;28;20021;-68
2023/08/18 01:54:03;;;;;;;9.82;7.20;;;;;;;20.98;91.25;100305.69;5058438;28;20033;-70
2023/08/18 01:56:28;;;;;;;11.63;7.18;;;;;;;20.86;89.96;100295.34;5041064;28;20026;-68
2023/08/18 01:58:53;;;;;;;11.10;6.90;;;;;;;21.16;89.46;100323.06;5061270;28;20527;-68
2023/08/18 02:01:19;;;;;;;12.70;7.15;;;;;;;21.18;89.24;100323.03;5061346;28;20033;-68
2023/08/18 02:03:44;;;;;;;9.40;7.15;;;;;;;21.13;88.86;100315.22;5061195;28;20052;-72
2023/08/18 02:06:10;;;;;;;15.95;6.85;;;;;;;21.19;88.44;100313.41;5061578;28;20147;-69
2023/08/18 02:08:35;;;;;;;8.55;7.05;;;;;;;21.34;87.78;100305.38;5064728;28;20081;-69
2023/08/18 02:11:04;;;;;;;9.77;6.72;;;;;;;21.47;86.23;100296.50;5062441;28;20027;-65
2023/08/18 02:13:31;;;;;;;10.13;7.07;;;;;;;21.61;86.53;100317.38;5057921;28;20403;-68
2023/08/18 02:15:56;;;;;;;8.90;6.90;;;;;;;21.61;86.87;100321.78;5063103;28;20028;-71
2023/08/18 02:18:22;;;;;;;12.23;6.97;;;;;;;21.54;86.29;100317.44;5066266;28;20028;-71
2023/08/18 02:20:54;;;;;;;8.00;6.50;;;;;;;21.45;86.68;100324.53;5061304;28;20090;-69
2023/08/18 02:23:19;;;;;;;9.18;6.22;;;;;;;21.40;86.39;100313.19;5061305;28;20057;-69
2023/08/18 02:25:45;;;;;;;7.60;6.60;;;;;;;21.30;87.01;100295.81;5062198;28;20653;-71
2023/08/18 02:28:10;;;;;;;9.98;6.72;;;;;;;21.32;86.34;100315.00;5065055;28;20713;-65
2023/08/18 02:30:35;;;;;;;9.05;6.40;;;;;;;21.16;86.24;100294.19;5065340;28;20025;-67
2023/08/18 02:33:01;;;;;;;10.27;7.05;;;;;;;20.96;85.72;100243.63;5060670;28;20132;-69
2023/08/18 02:35:46;;;;;;;8.68;6.32;;;;;;;21.14;85.50;100279.31;5084507;28;20036;-68
2023/08/18 02:38:15;;;;;;;7.38;6.15;;;;;;;21.16;85.35;100275.81;5080578;28;20047;-68
2023/08/18 02:40:40;;;;;;;10.60;6.72;;;;;;;21.48;85.25;100313.09;5083521;28;20044;-70
2023/08/18 02:43:05;;;;;;;7.22;6.25;;;;;;;21.50;84.71;100320.09;5081443;28;20044;-70
2023/08/18 02:45:31;;;;;;;10.23;6.82;;;;;;;21.66;84.56;100322.59;5083688;28;20066;-66
2023/08/18 02:47:57;;;;;;;7.82;6.47;;;;;;;21.80;83.79;100315.41;5083232;28;20733;-68
2023/08/18 02:50:23;;;;;;;8.00;6.72;;;;;;;21.97;83.49;100317.84;5083728;28;20444;-70
2023/08/18 02:52:48;;;;;;;10.23;5.72;;;;;;;22.06;83.08;100301.06;5086780;28;20039;-68
2023/08/18 02:55:14;;;;;;;11.65;6.32;;;;;;;22.22;82.07;100319.25;5085407;28;20525;-67
2023/08/18 02:57:39;;;;;;;9.52;6.03;;;;;;;22.27;80.29;100325.34;5083567;28;20044;-67
2023/08/18 03:00:05;;;;;;;9.23;6.70;;;;;;;22.33;79.75;100309.50;5083579;28;20426;-69
2023/08/18 03:02:31;;;;;;;9.93;6.15;;;;;;;22.34;78.40;100305.94;5082078;28;20609;-69
2023/08/18 03:04:56;;;;;;;9.60;6.10;;;;;;;22.44;78.12;100319.88;5083527;28;20058;-69
2023/08/18 03:07:22;;;;;;;12.50;6.20;;;;;;;22.42;79.29;100319.91;5070339;28;20047;-64
2023/08/18 03:09:47;;;;;;;11.27;6.68;;;;;;;22.20;80.00;100287.72;5065459;28;20020;-67
2023/08/18 03:12:12;;;;;;;9.88;6.72;;;;;;;22.29;79.61;100310.41;5050553;28;20032;-67
2023/08/18 03:14:38;;;;;;;11.20;6.20;;;;;;;22.34;79.73;100320.88;5063819;28;20083;-65
2023/08/18 03:17:03;;;;;;;8.43;6.18;;;;;;;22.34;80.02;100319.09;5065270;28;20136;-65
2023/08/18 03:19:29;;;;;;;11.90;6.55;;;;;;;21.87;80.10;100268.03;5066133;28;20031;-66
2023/08/18 03:21:55;;;;;;;8.15;6.00;;;;;;;22.22;79.90;100325.41;5066977;28;20154;-66
2023/08/18 03:24:20;;;;;;;9.02;6.43;;;;;;;22.00;80.60;100309.03;5063504;28;20513;-68
2023/08/18 03:26:46;;;;;;;9.73;7.07;;;;;;;22.04;80.80;100325.66;5068633;28;20082;-65
2023/08/18 03:29:11;;;;;;;11.82;7.03;;;;;;;21.98;81.39;100322.22;5064839;28;20108;-65
2023/08/18 03:31:36;;;;;;;9.60;6.68;;;;;;;21.70;81.55;100286.66;5063726;28;20472;-68
2023/08/18 03:34:02;;;;;;;8.05;6.85;;;;;;;21.94;82.10;100317.88;5083969;28;20078;-69
2023/08/18 03:36:27;;;;;;;12.32;6.78;;;;;;;21.94;82.40;100317.88;5064003;28;20086;-67
2023/08/18 03:38:53;;;;;;;14.73;7.97;;;;;;;21.83;81.96;100309.25;5065912;28;20048;-71
2023/08/18 03:41:18;;;;;;;11.63;7.63;;;;;;;21.99;82.01;100336.22;5069101;28;20071;-67
2023/08/18 03:43:43;;;;;;;13.20;7.80;;;;;;;21.96;81.45;100331.00;5068292;28;20036;-69
2023/08/18 03:46:20;;;;;;;11.45;7.00;;;;;;;21.98;81.56;100332.72;5067342;28;20036;-68
2023/08/18 03:48:45;;;;;;;10.63;7.75;;;;;;;22.00;82.21;100344.97;5068144;28;20016;-72
2023/08/18 03:51:11;;;;;;;13.50;7.57;;;;;;;21.66;81.78;100288.44;5063797;28;20108;-66
2023/08/18 03:53:37;;;;;;;12.80;7.22;;;;;;;21.97;81.84;100341.50;5063400;28;20073;-68
2023/08/18 03:56:02;;;;;;;11.60;7.38;;;;;;;21.85;81.89;100333.75;5064917;28;20036;-69
2023/08/18 03:58:28;;;;;;;12.50;8.05;;;;;;;21.64;82.18;100288.44;5061633;28;20055;-68
2023/08/18 04:01:01;;;;;;;11.65;7.80;;;;;;;22.06;82.34;100351.03;5067570;28;20017;-66
2023/08/18 04:03:26;;;;;;;15.18;7.72;;;;;;;21.95;82.16;100343.25;5064198;28;20028;-71
2023/08/18 04:05:52;;;;;;;10.68;7.47;;;;;;;21.88;82.06;100343.34;5063921;28;20055;-69
2023/08/18 04:08:17;;;;;;;10.63;7.78;;;;;;;21.87;83.04;100357.38;5062295;28;20040;-68
2023/08/18 04:10:43;;;;;;;8.95;6.90;;;;;;;21.80;83.04;100346.09;5061876;28;20033;-71
2023/08/18 04:13:08;;;;;;;11.90;7.85;;;;;;;21.83;82.97;100332.88;5064286;28;20051;-69
2023/08/18 04:15:33;;;;;;;11.20;7.38;;;;;;;21.90;82.83;100342.44;5063340;28;20531;-70
2023/08/18 04:17:59;;;;;;;10.93;7.60;;;;;;;21.97;82.91;100361.66;5062578;28;20178;-71
2023/08/18 04:20:24;;;;;;;11.35;7.65;;;;;;;21.97;82.81;100348.53;5066016;28;20047;-71
2023/08/18 04:22:49;;;;;;;17.65;7.32;;;;;;;20.91;82.96;100166.69;5066322;28;20032;-67
2023/08/18 04:25:15;;;;;;;10.20;7.68;;;;;;;21.96;83.37;100349.41;5061916;28;20028;-70
2023/08/18 04:27:40;;;;;;;9.30;7.93;;;;;;;21.93;83.46;100344.16;5064001;28;20025;-71
2023/08/18 04:30:06;;;;;;;11.32;7.65;;;;;;;21.95;83.40;100358.19;5059384;28;20036;-72
2023/08/18 04:32:32;;;;;;;10.52;7.97;;;;;;;21.91;83.76;100359.09;5059666;28;20021;-68
2023/08/18 04:34:59;;;;;;;10.02;7.20;;;;;;;21.79;84.20;100339.09;5063413;28;20021;-70
2023/08/18 04:37:26;;;;;;;11.35;7.78;;;;;;;21.97;83.68;100352.00;5060022;28;20032;-69
2023/08/18 04:39:52;;;;;;;13.30;7.60;;;;;;;22.02;83.90;100356.31;5063657;28;20119;-69
2023/08/18 04:42:18;;;;;;;16.17;8.20;;;;;;;21.94;84.08;100332.78;5065582;28;20078;-69
2023/08/18 04:44:44;;;;;;;15.88;8.35;;;;;;;21.96;84.00;100355.50;5062950;28;20539;-69
2023/08/18 04:47:10;;;;;;;10.07;8.02;;;;;;;21.94;84.45;100353.81;5063577;28;20115;-67
2023/08/18 04:49:35;;;;;;;11.38;8.23;;;;;;;21.86;84.46;100350.38;5061626;28;20485;-68
2023/08/18 04:52:07;;;;;;;14.05;8.95;;;;;;;21.88;85.19;100348.63;5064160;28;20090;-69
2023/08/18 04:54:33;;;;;;;11.90;8.35;;;;;;;21.81;86.09;100343.44;5047828;28;20033;-68
2023/08/18 04:56:59;;;;;;;11.98;7.68;;;;;;;21.86;86.01;100347.75;5064555;28;20553;-67
2023/08/18 04:59:26;;;;;;;12.30;8.23;;;;;;;21.89;84.97;100348.59;5064202;28;20041;-69
2023/08/18 05:01:52;;;;;;;19.67;8.13;;;;;;;22.00;85.68;100350.25;5062301;28;20092;-67
2023/08/18 05:04:19;;;;;;;12.40;8.02;;;;;;;22.08;84.97;100353.63;5060264;28;20072;-68
2023/08/18 05:06:45;;;;;;;13.18;7.60;;;;;;;22.10;84.07;100341.34;5064711;28;20020;-68
2023/08/18 05:09:11;;;;;;;9.88;7.55;;;;;;;22.22;83.72;100350.81;5060663;28;20021;-68
2023/08/18 05:11:36;;;;;;;14.55;7.43;;;;;;;22.24;82.20;100344.69;5062481;28;20055;-69
2023/08/18 05:14:02;;;;;;;11.68;7.07;;;;;;;22.33;82.39;100346.31;5060205;28;20039;-67
2023/08/18 05:16:27;;;;;;;9.18;7.38;;;;;;;22.39;82.20;100346.25;5063814;28;20128;-65
2023/08/18 05:18:53;;;;;;;13.68;8.10;;;;;;;22.43;83.29;100353.22;5065250;28;20078;-65
2023/08/18 05:21:18;;;;;;;13.10;8.50;;;;;;;22.44;83.12;100338.28;5061633;28;20046;-67
2023/08/18 05:23:44;;;;;;;19.33;8.10;;;;;;;22.54;82.89;100350.44;5067345;28;20028;-66
2023/08/18 05:26:09;;;;;;;10.50;7.53;;;;;;;22.60;82.33;100338.94;5075965;28;20021;-67
2023/08/18 05:28:35;;;;;;;10.43;7.28;;;;;;;22.67;81.94;100335.31;5060857;28;20032;-67
2023/08/18 05:31:00;;;;;;;10.48;7.35;;;;;;;22.80;81.03;100349.16;5063062;28;20032;-67
2023/08/18 05:33:25;;;;;;;9.57;7.05;;;;;;;22.85;80.95;100359.63;5061274;28;20024;-66
2023/08/18 05:36:07;;;;;;;12.50;7.22;;;;;;;22.96;80.24;100355.03;5058610;28;20029;-67
2023/08/18 05:38:35;;;;;;;8.68;6.40;;;;;;;23.07;79.75;100361.00;5029463;28;20060;-66
2023/08/18 05:41:07;;;;;;;11.98;7.10;;;;;;;23.18;79.97;100359.97;5052180;28;20025;-68
2023/08/18 05:43:37;;;;;;;12.85;6.90;;;;;;;23.05;80.07;100352.28;5061905;28;20098;-68
2023/08/18 05:46:03;;;;;;;;;;;;;;;22.97;80.66;100367.31;5061975;28;20024;-68
2023/08/18 05:48:30;;;;;;;12.77;6.95;;;;;;;22.96;79.74;100365.56;5062061;28;20280;-67
2023/08/18 05:50:55;;;;;;;9.35;6.75;;;;;;;23.10;79.26;100371.50;5062815;28;20135;-72
2023/08/18 05:53:20;;;;;;;12.73;6.60;;;;;;;23.13;79.27;100346.00;5061800;28;20129;-66
2023/08/18 05:55:46;;;;;;;17.20;7.10;;;;;;;23.11;79.84;100332.84;5065078;28;20056;-68
2023/08/18 05:58:13;;;;;;;13.60;7.50;;;;;;;23.16;78.75;100338.94;5062056;28;20518;-67
2023/08/18 06:00:38;;;;;;;8.18;6.70;;;;;;;23.05;80.29;100328.59;5061957;28;20051;-71
2023/08/18 06:03:04;;;;;;;11.35;6.85;;;;;;;23.09;80.24;100335.53;5064102;28;20491;-67
2023/08/18 06:05:29;;;;;;;14.35;7.63;;;;;;;23.16;78.91;100352.09;5065585;28;20040;-67
2023/08/18 06:07:56;;;;;;;9.98;7.30;;;;;;;22.86;81.29;100306.09;5064472;28;20028;-67
2023/08/18 06:10:21;;;;;;;10.65;7.07;;;;;;;23.15;80.21;100339.78;5065702;28;20115;-72
2023/08/18 06:12:48;;;;;;;10.85;7.10;;;;;;;23.43;78.58;100369.19;5069295;28;20465;-67
2023/08/18 06:15:13;;;;;;;10.55;7.35;;;;;;;23.69;78.48;100367.84;5066416;28;20036;-68
2023/08/18 06:17:40;;;;;;;13.25;7.78;;;;;;;23.49;77.08;100302.38;5063891;28;20032;-67
2023/08/18 06:20:06;;;;;;;12.20;7.47;;;;;;;24.06;76.22;100366.28;5067627;28;20035;-70
2023/08/18 06:22:32;;;;;;;12.48;7.78;;;;;;;24.16;75.16;100359.94;5063442;28;20040;-67
2023/08/18 06:24:57;;;;;;;12.40;7.72;;;;;;;24.33;76.21;100362.19;5070814;28;20021;-68
2023/08/18 06:27:23;;;;;;;12.65;8.25;;;;;;;24.10;74.85;100309.06;5064262;28;20078;-67
2023/08/18 06:29:48;;;;;;;46.15;26.70;;;;;;;24.52;74.36;100359.13;5062974;28;20033;-70
2023/08/18 06:32:13;;;;;;;40.42;23.65;;;;;;;24.35;75.32;100339.28;5064445;28;20043;-66
2023/08/18 06:34:40;;;;;;;19.90;12.70;;;;;;;24.52;76.30;100356.50;5068042;28;20089;-67
2023/08/18 06:37:05;;;;;;;22.23;13.15;;;;;;;24.53;74.29;100360.88;5061799;28;20044;-69
2023/08/18 06:39:32;;;;;;;27.85;16.38;;;;;;;24.03;75.06;100258.25;5067996;28;20048;-67
2023/08/18 06:41:57;;;;;;;22.98;14.38;;;;;;;24.62;73.71;100344.81;5065318;28;20128;-67
2023/08/18 06:44:22;;;;;;;19.05;11.27;;;;;;;24.79;76.31;100367.38;5061142;28;20025;-68
2023/08/18 06:46:48;;;;;;;13.45;8.00;;;;;;;24.94;73.72;100361.72;5070721;28;20047;-66
2023/08/18 06:49:13;;;;;;;13.25;7.78;;;;;;;24.93;74.04;100332.72;5067092;28;20037;-69
2023/08/18 06:51:39;;;;;;;10.50;6.50;;;;;;;25.10;72.87;100334.94;5063525;28;20517;-68
2023/08/18 06:54:05;;;;;;;16.17;6.72;;;;;;;25.39;72.37;100357.13;5064380;28;20037;-68
2023/08/18 06:56:30;;;;;;;12.30;6.70;;;;;;;25.52;72.85;100347.94;5048327;28;20029;-67
2023/08/18 06:58:56;;;;;;;8.90;6.28;;;;;;;25.83;73.84;100340.03;5063993;28;20036;-67
2023/08/18 07:01:21;;;;;;;9.95;6.55;;;;;;;26.05;70.24;100338.53;5065236;28;20017;-67
2023/08/18 07:03:48;;;;;;;11.20;6.38;;;;;;;26.29;67.70;100340.50;5067605;28;20423;-69
2023/08/18 07:06:13;;;;;;;10.80;6.05;;;;;;;26.32;68.67;100331.59;5063937;28;20021;-69
2023/08/18 07:08:39;;;;;;;8.77;6.32;;;;;;;26.37;67.96;100315.53;5070185;28;20028;-67
2023/08/18 07:11:04;;;;;;;8.77;6.05;;;;;;;26.61;68.62;100340.38;5063807;28;20039;-72
2023/08/18 07:13:30;;;;;;;9.82;6.20;;;;;;;26.79;65.46;100350.44;5065878;28;20027;-68
2023/08/18 07:15:55;;;;;;;10.98;6.50;;;;;;;27.09;64.74;100346.78;5063964;28;20078;-66
2023/08/18 07:18:21;;;;;;;10.30;6.75;;;;;;;27.21;66.76;100332.28;5070308;28;20646;-67
2023/08/18 07:20:47;;;;;;;9.32;6.82;;;;;;;27.43;62.47;100346.53;5060697;28;20542;-69
2023/08/18 07:23:12;;;;;;;14.35;7.53;;;;;;;27.66;62.62;100357.25;5065712;28;20024;-71
2023/08/18 07:25:41;;;;;;;10.80;6.97;;;;;;;27.38;61.30;100287.47;5063805;28;20469;-70
2023/08/18 07:28:07;;;;;;;14.63;7.70;;;;;;;27.76;61.71;100334.75;5062906;28;20067;-71
2023/08/18 07:30:32;;;;;;;13.35;7.65;;;;;;;27.90;61.45;100324.53;5064070;28;20476;-70
2023/08/18 07:32:58;;;;;;;13.73;7.22;;;;;;;27.98;63.47;100323.38;5062978;28;20031;-70
2023/08/18 07:35:23;;;;;;;11.35;7.05;;;;;;;28.05;61.86;100340.78;5064987;28;20037;-67
2023/08/18 07:37:50;;;;;;;11.32;7.13;;;;;;;28.01;64.71;100326.75;5064214;28;20049;-68
2023/08/18 07:40:16;;;;;;;11.65;6.65;;;;;;;28.16;62.93;100349.22;5066782;28;20056;-68
2023/08/18 07:42:41;;;;;;;9.93;6.30;;;;;;;28.22;63.68;100333.03;5064192;28;20119;-67
2023/08/18 07:45:07;;;;;;;9.18;5.97;;;;;;;28.20;63.10;100332.25;5067177;28;20028;-68
2023/08/18 07:47:34;;;;;;;10.30;5.82;;;;;;;28.15;61.66;100322.72;5063934;28;20028;-68
2023/08/18 07:50:00;;;;;;;11.85;6.78;;;;;;;27.99;63.40;100298.53;5067085;28;20536;-68
2023/08/18 07:52:25;;;;;;;14.27;6.78;;;;;;;28.09;62.43;100303.47;5066263;28;20017;-66
2023/08/18 07:54:51;;;;;;;9.27;5.75;;;;;;;28.03;61.56;100301.03;5062845;28;20020;-67
2023/08/18 07:57:16;;;;;;;10.18;5.63;;;;;;;27.99;62.32;100288.81;5061486;28;20028;-68
2023/08/18 07:59:42;;;;;;;12.98;5.20;;;;;;;28.14;62.20;100298.00;5069389;28;20041;-67
2023/08/18 08:02:08;;;;;;;10.68;5.80;;;;;;;28.27;62.80;100302.81;5063207;28;20056;-69
2023/08/18 08:04:33;;;;;;;10.80;5.40;;;;;;;28.02;63.57;100238.25;5067848;28;20024;-68
2023/08/18 08:06:59;;;;;;;12.27;5.20;;;;;;;28.48;62.19;100291.34;5061477;28;20051;-68
2023/08/18 08:09:26;;;;;;;12.07;5.60;;;;;;;28.94;63.74;100311.66;5063998;28;20403;-70
2023/08/18 08:11:52;;;;;;;13.85;5.55;;;;;;;29.06;61.69;100313.78;5064178;28;20031;-66
2023/08/18 08:14:19;;;;;;;14.70;5.82;;;;;;;29.18;60.28;100310.56;5060720;28;20875;-67
2023/08/18 08:16:45;;;;;;;11.65;5.25;;;;;;;29.38;59.14;100311.53;5068998;28;20067;-67
2023/08/18 08:19:10;;;;;;;9.15;5.13;;;;;;;29.62;58.28;100320.25;5064007;28;20490;-66
2023/08/18 08:21:36;;;;;;;17.05;4.93;;;;;;;29.80;54.43;100317.66;5060870;28;20024;-67
2023/08/18 08:24:03;;;;;;;11.35;4.00;;;;;;;30.01;52.72;100305.19;5068281;28;20108;-66
2023/08/18 08:26:29;;;;;;;10.20;4.32;;;;;;;29.96;50.98;100272.63;5065248;28;20153;-67
2023/08/18 08:28:54;;;;;;;5.80;3.90;;;;;;;30.28;49.20;100302.16;5052288;28;20033;-69
2023/08/18 08:31:20;;;;;;;7.97;3.97;;;;;;;30.33;49.65;100294.78;5061272;28;20027;-65
2023/08/18 08:33:45;;;;;;;12.70;4.35;;;;;;;30.44;50.80;100297.78;5059182;28;20033;-73
2023/08/18 08:36:11;;;;;;;16.25;4.38;;;;;;;30.58;50.24;100296.28;5061556;28;20445;-69
2023/08/18 08:38:37;;;;;;;18.73;5.57;;;;;;;30.73;47.68;100287.56;5061102;28;20044;-68
2023/08/18 08:41:02;;;;;;;13.73;5.25;;;;;;;30.88;48.19;100287.69;5054712;28;20030;-72
2023/08/18 08:43:28;;;;;;;9.40;4.70;;;;;;;30.89;48.29;100279.63;5040460;28;20498;-70
2023/08/18 08:45:57;;;;;;;15.18;4.70;;;;;;;31.16;49.17;100292.50;5041814;28;20025;-72
2023/08/18 08:48:29;;;;;;;6.63;3.63;;;;;;;30.95;46.29;100235.78;5046870;28;20017;-71
2023/08/18 08:50:59;;;;;;;9.98;4.00;;;;;;;31.19;47.14;100288.81;5045503;28;20033;-72
2023/08/18 08:53:35;;;;;;;10.10;4.10;;;;;;;31.23;46.59;100277.91;5047367;28;20025;-68
2023/08/18 08:56:02;;;;;;;9.65;3.83;;;;;;;31.41;46.68;100297.41;5055436;28;20037;-68
2023/08/18 08:58:31;;;;;;;5.93;3.85;;;;;;;31.44;46.06;100293.72;5062102;28;20032;-66
2023/08/18 09:01:01;;;;;;;11.43;4.20;;;;;;;31.58;46.14;100291.16;5046562;28;20128;-70
2023/08/18 09:03:30;;;;;;;30.90;7.50;;;;;;;31.37;43.49;100242.50;5042933;28;20032;-69
2023/08/18 09:05:55;;;;;;;14.32;4.70;;;;;;;31.74;43.23;100296.56;5047480;28;20032;-72
2023/08/18 09:08:21;;;;;;;20.58;6.28;;;;;;;31.82;44.17;100287.28;5046496;28;20040;-66
2023/08/18 09:10:47;;;;;;;10.80;4.60;;;;;;;31.62;44.21;100227.81;5059736;28;20095;-69
2023/08/18 09:13:13;;;;;;;6.80;3.75;;;;;;;32.10;42.46;100287.47;5046594;28;20025;-69
2023/08/18 09:15:44;;;;;;;8.30;3.65;;;;;;;32.16;43.27;100277.38;5045253;28;20037;-68
2023/08/18 09:18:11;;;;;;;7.60;4.25;;;;;;;31.91;45.14;100236.91;5047063;28;20134;-69
2023/08/18 09:20:37;;;;;;;7.45;3.50;;;;;;;32.18;44.36;100278.16;5044450;28;20104;-69
2023/08/18 09:23:03;;;;;;;10.82;3.60;;;;;;;32.26;42.20;100284.84;5042611;28;20130;-69
2023/08/18 09:25:33;;;;;;;25.20;4.97;;;;;;;31.91;37.22;100206.69;5046610;28;20028;-70
2023/08/18 09:28:03;;;;;;;13.27;3.50;;;;;;;32.27;38.13;100240.28;5039279;28;20029;-69
2023/08/18 09:30:30;;;;;;;5.57;3.13;;;;;;;32.27;35.61;100202.88;5042125;28;20036;-68
2023/08/18 09:32:56;;;;;;;9.13;3.35;;;;;;;32.83;35.19;100285.19;5039647;28;20060;-67
2023/08/18 09:35:21;;;;;;;15.23;4.40;;;;;;;32.64;35.48;100224.75;5043723;28;20044;-67
2023/08/18 09:37:57;;;;;;;7.95;2.92;;;;;;;32.95;36.26;100262.19;5041778;28;20049;-68
2023/08/18 09:40:23;;;;;;;35.53;6.90;;;;;;;33.11;33.44;100267.47;5041280;28;20155;-69
2023/08/18 09:42:48;;;;;;;23.80;5.90;;;;;;;33.34;34.68;100288.34;5044612;28;20032;-68
2023/08/18 09:45:14;;;;;;;37.25;7.15;;;;;;;33.48;33.59;100279.44;5042899;28;20028;-68
2023/08/18 09:47:42;;;;;;;17.92;4.57;;;;;;;33.61;32.74;100281.38;5043965;28;20500;-68
2023/08/18 09:50:09;;;;;;;17.10;4.53;;;;;;;33.73;33.51;100277.91;5044675;28;20025;-69
2023/08/18 09:52:38;;;;;;;9.90;3.55;;;;;;;33.79;32.79;100271.31;5074403;28;20040;-67
2023/08/18 09:55:14;;;;;;;10.98;4.15;;;;;;;33.85;32.73;100268.28;5044863;28;20025;-68
2023/08/18 09:58:10;;;;;;;17.05;4.50;;;;;;;33.90;33.74;100262.59;5045210;28;20091;-67
2023/08/18 10:00:41;;;;;;;25.10;4.63;;;;;;;33.81;32.59;100261.34;5042027;28;20075;-68
2023/08/18 10:03:08;;;;;;;12.43;3.70;;;;;;;33.85;32.54;100241.50;5058774;28;20526;-68
2023/08/18 10:05:34;;;;;;;22.40;5.25;;;;;;;34.03;33.00;100228.72;5041705;28;20082;-69
2023/08/18 10:08:02;;;;;;;26.05;6.32;;;;;;;33.83;34.65;100192.53;5046734;28;20033;-68
2023/08/18 10:10:28;;;;;;;10.77;3.83;;;;;;;34.25;31.03;100244.25;5042922;28;20076;-68
2023/08/18 10:12:54;;;;;;;5.20;3.05;;;;;;;34.28;32.88;100245.88;5043505;28;20064;-66
2023/08/18 10:15:20;;;;;;;21.58;5.45;;;;;;;34.41;30.52;100246.81;5044520;28;20021;-68
2023/08/18 10:17:46;;;;;;;15.30;3.70;;;;;;;34.57;30.67;100252.00;5044224;28;20052;-68
2023/08/18 10:20:12;;;;;;;9.65;2.83;;;;;;;34.56;31.03;100233.31;5045199;28;20076;-68
2023/08/18 10:22:38;;;;;;;10.18;3.13;;;;;;;34.62;28.60;100249.84;5044515;28;20452;-69
2023/08/18 10:25:05;;;;;;;29.27;5.97;;;;;;;34.60;29.34;100254.44;5045606;28;20060;-65
2023/08/18 10:27:35;;;;;;;12.70;4.22;;;;;;;34.70;30.34;100254.69;5042087;28;20036;-68
2023/08/18 10:30:02;;;;;;;36.10;6.70;;;;;;;34.78;28.58;100247.00;5042149;28;20369;-66
2023/08/18 10:32:30;;;;;;;15.98;4.22;;;;;;;34.94;28.84;100245.97;5043585;28;20095;-67
2023/08/18 10:35:24;;;;;;;18.90;3.42;;;;;;;35.02;30.18;100259.72;5043337;28;20062;-73
2023/08/18 10:38:04;;;;;;;9.88;3.00;;;;;;;34.88;29.89;100219.56;5042970;28;20061;-78
2023/08/18 10:40:37;;;;;;;23.73;5.80;;;;;;;35.26;32.03;100257.13;5045470;28;20033;-76
2023/08/18 10:43:08;;;;;;;7.28;3.08;;;;;;;35.25;30.02;100266.13;5058560;28;20116;-65
2023/08/18 10:45:34;;;;;;;11.10;3.55;;;;;;;35.11;30.02;100263.56;5064320;28;20407;-69
2023/08/18 10:48:03;;;;;;;20.15;4.32;;;;;;;35.03;30.23;100273.97;5066461;28;20171;-71
2023/08/18 10:50:30;;;;;;;15.02;4.05;;;;;;;35.03;31.34;100260.56;5063104;28;20078;-69
2023/08/18 10:52:57;;;;;;;35.72;6.50;;;;;;;35.06;30.39;100271.94;5064509;28;20039;-70
2023/08/18 10:55:24;;;;;;;4.13;2.40;;;;;;;34.82;28.71;100218.16;5058462;28;20091;-68
2023/08/18 10:57:49;;;;;;;13.55;3.63;;;;;;;35.12;29.20;100255.41;5058473;28;20036;-68
2023/08/18 11:00:17;;;;;;;7.60;3.40;;;;;;;35.11;31.66;100239.44;5056311;28;20032;-67
2023/08/18 11:02:49;;;;;;;17.03;4.83;;;;;;;35.11;30.80;100255.53;5065796;28;20039;-70
2023/08/18 11:05:20;;;;;;;7.75;2.72;;;;;;;34.73;27.24;100258.97;5063453;28;20275;-67
2023/08/18 11:07:46;;;;;;;7.65;2.45;;;;;;;34.73;29.20;100261.66;5062785;28;20129;-69
2023/08/18 11:10:22;;;;;;;13.40;3.60;;;;;;;34.60;31.18;100249.09;5067757;28;20029;-67
2023/08/18 11:12:49;;;;;;;31.88;6.20;;;;;;;34.85;31.08;100260.81;5066938;28;20028;-67
2023/08/18 11:15:16;;;;;;;10.75;3.40;;;;;;;35.10;29.12;100280.63;5062763;28;20036;-67
2023/08/18 11:17:42;;;;;;;11.60;3.20;;;;;;;35.08;30.99;100247.66;5065261;28;20040;-66